sensor_id;sensor_type;location;lat;lon;timestamp;temperature;humidity
56103;DHT22;41970;48.774;9.280;2023-02-01T00:00:13;5.10;99.90
56103;DHT22;41970;48.774;9.280;2023-02-01T00:02:39;5.10;99.90
56103;DHT22;41970;48.774;9.280;2023-02-01T00:05:07;5.20;99.90
56103;DHT22;41970;48.774;9.280;2023-02-01T00:07:34;5.30;99.90
56103;DHT22;41970;48.774;9.280;2023-02-01T00:10:00;5.40;99.90
56103;DHT22;41970;48.774;9.280;2023-02-01T00:12:26;5.40;99.90
56103;DHT22;41970;48.774;9.280;2023-02-01T00:14:51;5.40;99.90
56103;DHT22;41970;48.774;9.280;2023-02-01T00:17:17;5.40;99.90
56103;DHT22;41970;48.774;9.280;2023-02-01T00:19:43;5.20;99.90
56103;DHT22;41970;48.774;9.280;2023-02-01T00:22:09;5.10;99.90
56103;DHT22;41970;48.774;9.280;2023-02-01T00:24:34;5.00;99.90
56103;DHT22;41970;48.774;9.280;2023-02-01T00:27:00;4.90;99.90
56103;DHT22;41970;48.774;9.280;2023-02-01T00:29:25;5.00;99.90
56103;DHT22;41970;48.774;9.280;2023-02-01T00:31:51;5.10;99.90
56103;DHT22;41970;48.774;9.280;2023-02-01T00:34:18;5.10;99.90
56103;DHT22;41970;48.774;9.280;2023-02-01T00:36:45;5.10;99.90
56103;DHT22;41970;48.774;9.280;2023-02-01T00:39:11;5.20;99.90
56103;DHT22;41970;48.774;9.280;2023-02-01T00:41:37;5.20;99.90
56103;DHT22;41970;48.774;9.280;2023-02-01T00:44:03;5.20;99.90
56103;DHT22;41970;48.774;9.280;2023-02-01T00:46:29;5.20;99.90
56103;DHT22;41970;48.774;9.280;2023-02-01T00:48:55;5.20;99.90
56103;DHT22;41970;48.774;9.280;2023-02-01T00:51:23;5.20;99.90
56103;DHT22;41970;48.774;9.280;2023-02-01T00:53:50;5.10;99.90
56103;DHT22;41970;48.774;9.280;2023-02-01T00:56:16;5.20;99.90
56103;DHT22;41970;48.774;9.280;2023-02-01T00:58:43;5.20;99.90
56103;DHT22;41970;48.774;9.280;2023-02-01T01:03:39;5.30;99.90
56103;DHT22;41970;48.774;9.280;2023-02-01T01:06:11;5.30;99.90
56103;DHT22;41970;48.774;9.280;2023-02-01T01:08:37;5.30;99.90
56103;DHT22;41970;48.774;9.280;2023-02-01T01:11:24;5.20;99.90
56103;DHT22;41970;48.774;9.280;2023-02-01T01:13:51;5.20;99.90
56103;DHT22;41970;48.774;9.280;2023-02-01T01:16:18;5.20;99.90
56103;DHT22;41970;48.774;9.280;2023-02-01T01:18:45;5.30;99.90
56103;DHT22;41970;48.774;9.280;2023-02-01T01:21:12;5.30;99.90
56103;DHT22;41970;48.774;9.280;2023-02-01T01:23:38;5.30;99.90
56103;DHT22;41970;48.774;9.280;2023-02-01T01:26:22;5.20;99.90
56103;DHT22;41970;48.774;9.280;2023-02-01T01:28:48;5.20;99.90
56103;DHT22;41970;48.774;9.280;2023-02-01T01:31:15;5.20;99.90
56103;DHT22;41970;48.774;9.280;2023-02-01T01:33:41;5.20;99.90
56103;DHT22;41970;48.774;9.280;2023-02-01T01:36:10;5.20;99.90
56103;DHT22;41970;48.774;9.280;2023-02-01T01:38:37;5.20;99.90
56103;DHT22;41970;48.774;9.280;2023-02-01T01:41:03;5.20;99.90
56103;DHT22;41970;48.774;9.280;2023-02-01T01:43:56;5.30;99.90
56103;DHT22;41970;48.774;9.280;2023-02-01T01:46:34;5.30;99.90
56103;DHT22;41970;48.774;9.280;2023-02-01T01:49:16;5.20;99.90
56103;DHT22;41970;48.774;9.280;2023-02-01T01:51:50;5.10;99.90
56103;DHT22;41970;48.774;9.280;2023-02-01T01:54:35;5.20;99.90
56103;DHT22;41970;48.774;9.280;2023-02-01T01:57:17;5.20;99.90
56103;DHT22;41970;48.774;9.280;2023-02-01T01:59:48;5.30;99.90
56103;DHT22;41970;48.774;9.280;2023-02-01T02:02:16;5.30;99.90
56103;DHT22;41970;48.774;9.280;2023-02-01T02:04:42;5.30;99.90
56103;DHT22;41970;48.774;9.280;2023-02-01T02:07:11;5.30;99.90
56103;DHT22;41970;48.774;9.280;2023-02-01T02:09:38;5.30;99.90
56103;DHT22;41970;48.774;9.280;2023-02-01T02:12:04;5.30;99.90
56103;DHT22;41970;48.774;9.280;2023-02-01T02:14:30;5.40;99.90
56103;DHT22;41970;48.774;9.280;2023-02-01T02:38:47;5.40;99.90
56103;DHT22;41970;48.774;9.280;2023-02-01T02:41:49;5.40;99.90
56103;DHT22;41970;48.774;9.280;2023-02-01T02:44:57;5.50;99.90
56103;DHT22;41970;48.774;9.280;2023-02-01T02:50:55;5.40;99.90
56103;DHT22;41970;48.774;9.280;2023-02-01T02:56:33;5.50;99.90
56103;DHT22;41970;48.774;9.280;2023-02-01T02:59:21;5.40;99.90
56103;DHT22;41970;48.774;9.280;2023-02-01T03:02:07;5.40;99.90
56103;DHT22;41970;48.774;9.280;2023-02-01T03:04:53;5.40;99.90
56103;DHT22;41970;48.774;9.280;2023-02-01T03:10:24;5.50;99.90
56103;DHT22;41970;48.774;9.280;2023-02-01T03:12:52;5.60;99.90
56103;DHT22;41970;48.774;9.280;2023-02-01T03:15:36;5.50;99.90
56103;DHT22;41970;48.774;9.280;2023-02-01T03:18:11;5.40;99.90
56103;DHT22;41970;48.774;9.280;2023-02-01T03:20:38;5.40;99.90
56103;DHT22;41970;48.774;9.280;2023-02-01T03:23:05;5.30;99.90
56103;DHT22;41970;48.774;9.280;2023-02-01T03:25:32;5.40;99.90
56103;DHT22;41970;48.774;9.280;2023-02-01T03:28:09;5.40;99.90
56103;DHT22;41970;48.774;9.280;2023-02-01T03:30:43;5.40;99.90
56103;DHT22;41970;48.774;9.280;2023-02-01T03:33:13;5.30;99.90
56103;DHT22;41970;48.774;9.280;2023-02-01T03:41:51;4.90;99.90
56103;DHT22;41970;48.774;9.280;2023-02-01T03:44:35;5.00;99.90
56103;DHT22;41970;48.774;9.280;2023-02-01T03:52:38;5.10;99.90
56103;DHT22;41970;48.774;9.280;2023-02-01T03:55:05;5.20;99.90
56103;DHT22;41970;48.774;9.280;2023-02-01T03:57:39;5.20;99.90
56103;DHT22;41970;48.774;9.280;2023-02-01T04:00:14;5.10;99.90
56103;DHT22;41970;48.774;9.280;2023-02-01T04:02:41;5.10;99.90
56103;DHT22;41970;48.774;9.280;2023-02-01T04:05:08;5.20;99.90
56103;DHT22;41970;48.774;9.280;2023-02-01T04:07:33;5.20;99.90
56103;DHT22;41970;48.774;9.280;2023-02-01T04:09:59;5.10;99.90
56103;DHT22;41970;48.774;9.280;2023-02-01T04:12:28;5.20;99.90
56103;DHT22;41970;48.774;9.280;2023-02-01T04:14:54;5.20;99.90
56103;DHT22;41970;48.774;9.280;2023-02-01T04:17:20;5.20;99.90
56103;DHT22;41970;48.774;9.280;2023-02-01T04:19:46;5.10;99.90
56103;DHT22;41970;48.774;9.280;2023-02-01T04:22:11;5.00;99.90
56103;DHT22;41970;48.774;9.280;2023-02-01T04:24:38;5.00;99.90
56103;DHT22;41970;48.774;9.280;2023-02-01T04:27:04;5.10;99.90
56103;DHT22;41970;48.774;9.280;2023-02-01T04:29:29;5.20;99.90
56103;DHT22;41970;48.774;9.280;2023-02-01T04:31:55;5.30;99.90
56103;DHT22;41970;48.774;9.280;2023-02-01T04:34:21;5.40;99.90
56103;DHT22;41970;48.774;9.280;2023-02-01T04:36:48;5.40;99.90
56103;DHT22;41970;48.774;9.280;2023-02-01T04:39:14;5.50;99.90
56103;DHT22;41970;48.774;9.280;2023-02-01T04:41:39;5.50;99.90
56103;DHT22;41970;48.774;9.280;2023-02-01T04:44:05;5.50;99.90
56103;DHT22;41970;48.774;9.280;2023-02-01T04:46:31;5.50;99.90
56103;DHT22;41970;48.774;9.280;2023-02-01T04:48:56;5.40;99.90
56103;DHT22;41970;48.774;9.280;2023-02-01T04:51:22;5.40;99.90
56103;DHT22;41970;48.774;9.280;2023-02-01T04:53:48;5.40;99.90
56103;DHT22;41970;48.774;9.280;2023-02-01T04:56:14;5.40;99.90
56103;DHT22;41970;48.774;9.280;2023-02-01T04:58:39;5.40;99.90
56103;DHT22;41970;48.774;9.280;2023-02-01T05:01:06;5.30;99.90
56103;DHT22;41970;48.774;9.280;2023-02-01T05:03:33;5.30;99.90
56103;DHT22;41970;48.774;9.280;2023-02-01T05:05:59;5.30;99.90
56103;DHT22;41970;48.774;9.280;2023-02-01T05:08:25;5.30;99.90
56103;DHT22;41970;48.774;9.280;2023-02-01T05:10:52;5.30;99.90
56103;DHT22;41970;48.774;9.280;2023-02-01T05:13:18;5.30;99.90
56103;DHT22;41970;48.774;9.280;2023-02-01T05:16:02;5.40;99.90
56103;DHT22;41970;48.774;9.280;2023-02-01T05:18:28;5.30;99.90
56103;DHT22;41970;48.774;9.280;2023-02-01T05:20:54;5.40;99.90
56103;DHT22;41970;48.774;9.280;2023-02-01T05:23:19;5.50;99.90
56103;DHT22;41970;48.774;9.280;2023-02-01T05:25:45;5.50;99.90
56103;DHT22;41970;48.774;9.280;2023-02-01T05:28:11;5.40;99.90
56103;DHT22;41970;48.774;9.280;2023-02-01T05:30:36;5.30;99.90
56103;DHT22;41970;48.774;9.280;2023-02-01T05:33:03;5.40;99.90
56103;DHT22;41970;48.774;9.280;2023-02-01T05:35:29;5.50;99.90
56103;DHT22;41970;48.774;9.280;2023-02-01T05:37:54;5.60;99.90
56103;DHT22;41970;48.774;9.280;2023-02-01T05:40:20;5.60;99.90
56103;DHT22;41970;48.774;9.280;2023-02-01T05:42:46;5.60;99.90
56103;DHT22;41970;48.774;9.280;2023-02-01T05:45:11;5.50;99.90
56103;DHT22;41970;48.774;9.280;2023-02-01T05:47:37;5.50;99.90
56103;DHT22;41970;48.774;9.280;2023-02-01T05:50:04;5.50;99.90
56103;DHT22;41970;48.774;9.280;2023-02-01T05:52:30;5.60;99.90
56103;DHT22;41970;48.774;9.280;2023-02-01T05:54:56;5.50;99.90
56103;DHT22;41970;48.774;9.280;2023-02-01T05:57:22;5.40;99.90
56103;DHT22;41970;48.774;9.280;2023-02-01T05:59:47;5.40;99.90
56103;DHT22;41970;48.774;9.280;2023-02-01T06:02:14;5.50;99.90
56103;DHT22;41970;48.774;9.280;2023-02-01T06:04:40;5.60;99.90
56103;DHT22;41970;48.774;9.280;2023-02-01T06:07:07;5.60;99.90
56103;DHT22;41970;48.774;9.280;2023-02-01T06:09:35;5.60;99.90
56103;DHT22;41970;48.774;9.280;2023-02-01T06:12:01;5.60;99.90
56103;DHT22;41970;48.774;9.280;2023-02-01T06:14:27;5.60;99.90
56103;DHT22;41970;48.774;9.280;2023-02-01T06:16:53;5.30;99.90
56103;DHT22;41970;48.774;9.280;2023-02-01T06:19:20;5.10;99.90
56103;DHT22;41970;48.774;9.280;2023-02-01T06:21:45;5.10;99.90
56103;DHT22;41970;48.774;9.280;2023-02-01T06:24:12;5.20;99.90
56103;DHT22;41970;48.774;9.280;2023-02-01T06:26:38;5.30;99.90
56103;DHT22;41970;48.774;9.280;2023-02-01T06:29:06;5.40;99.90
56103;DHT22;41970;48.774;9.280;2023-02-01T06:31:32;5.40;99.90
56103;DHT22;41970;48.774;9.280;2023-02-01T06:33:58;5.30;99.90
56103;DHT22;41970;48.774;9.280;2023-02-01T06:36:24;5.40;99.90
56103;DHT22;41970;48.774;9.280;2023-02-01T06:38:49;5.40;99.90
56103;DHT22;41970;48.774;9.280;2023-02-01T06:41:15;5.40;99.90
56103;DHT22;41970;48.774;9.280;2023-02-01T06:43:41;5.50;99.90
56103;DHT22;41970;48.774;9.280;2023-02-01T06:46:13;5.50;99.90
56103;DHT22;41970;48.774;9.280;2023-02-01T06:48:40;5.40;99.90
56103;DHT22;41970;48.774;9.280;2023-02-01T06:51:06;5.20;99.90
56103;DHT22;41970;48.774;9.280;2023-02-01T06:53:32;5.30;99.90
56103;DHT22;41970;48.774;9.280;2023-02-01T06:56:00;5.30;99.90
56103;DHT22;41970;48.774;9.280;2023-02-01T06:58:33;5.40;99.90
56103;DHT22;41970;48.774;9.280;2023-02-01T07:01:05;5.40;99.90
56103;DHT22;41970;48.774;9.280;2023-02-01T07:03:31;5.50;99.90
56103;DHT22;41970;48.774;9.280;2023-02-01T07:05:57;5.60;99.90
56103;DHT22;41970;48.774;9.280;2023-02-01T07:08:30;5.60;99.90
56103;DHT22;41970;48.774;9.280;2023-02-01T07:10:56;5.60;99.90
56103;DHT22;41970;48.774;9.280;2023-02-01T07:13:22;5.50;99.90
56103;DHT22;41970;48.774;9.280;2023-02-01T07:15:47;5.50;99.90
56103;DHT22;41970;48.774;9.280;2023-02-01T07:18:16;5.60;99.90
56103;DHT22;41970;48.774;9.280;2023-02-01T07:20:42;5.70;99.90
56103;DHT22;41970;48.774;9.280;2023-02-01T07:23:11;5.70;99.90
56103;DHT22;41970;48.774;9.280;2023-02-01T07:25:36;5.70;99.90
56103;DHT22;41970;48.774;9.280;2023-02-01T07:28:02;5.70;99.90
56103;DHT22;41970;48.774;9.280;2023-02-01T07:30:28;5.70;99.90
56103;DHT22;41970;48.774;9.280;2023-02-01T07:32:54;5.80;99.90
56103;DHT22;41970;48.774;9.280;2023-02-01T07:35:19;5.70;99.90
56103;DHT22;41970;48.774;9.280;2023-02-01T07:37:45;5.50;99.90
56103;DHT22;41970;48.774;9.280;2023-02-01T07:40:11;5.50;99.90
56103;DHT22;41970;48.774;9.280;2023-02-01T07:42:37;5.50;99.90
56103;DHT22;41970;48.774;9.280;2023-02-01T07:45:03;5.60;99.90
56103;DHT22;41970;48.774;9.280;2023-02-01T07:47:29;5.60;99.90
56103;DHT22;41970;48.774;9.280;2023-02-01T07:49:55;5.70;99.90
56103;DHT22;41970;48.774;9.280;2023-02-01T07:52:20;5.70;99.90
56103;DHT22;41970;48.774;9.280;2023-02-01T07:54:46;5.80;99.90
56103;DHT22;41970;48.774;9.280;2023-02-01T07:57:12;5.80;99.90
56103;DHT22;41970;48.774;9.280;2023-02-01T07:59:38;5.80;99.90
56103;DHT22;41970;48.774;9.280;2023-02-01T08:02:28;5.80;99.90
56103;DHT22;41970;48.774;9.280;2023-02-01T08:04:54;5.90;99.90
56103;DHT22;41970;48.774;9.280;2023-02-01T08:07:19;5.90;99.90
56103;DHT22;41970;48.774;9.280;2023-02-01T08:09:45;5.90;99.90
56103;DHT22;41970;48.774;9.280;2023-02-01T08:12:11;5.50;99.90
56103;DHT22;41970;48.774;9.280;2023-02-01T08:14:37;5.40;99.90
56103;DHT22;41970;48.774;9.280;2023-02-01T08:17:02;5.50;99.90
56103;DHT22;41970;48.774;9.280;2023-02-01T08:19:28;5.50;99.90
56103;DHT22;41970;48.774;9.280;2023-02-01T08:21:54;5.40;99.90
56103;DHT22;41970;48.774;9.280;2023-02-01T08:24:20;5.20;99.90
56103;DHT22;41970;48.774;9.280;2023-02-01T08:26:46;5.30;99.90
56103;DHT22;41970;48.774;9.280;2023-02-01T08:29:12;5.40;99.90
56103;DHT22;41970;48.774;9.280;2023-02-01T08:31:39;5.50;99.90
56103;DHT22;41970;48.774;9.280;2023-02-01T08:34:06;5.50;99.90
56103;DHT22;41970;48.774;9.280;2023-02-01T08:36:33;5.50;99.90
56103;DHT22;41970;48.774;9.280;2023-02-01T08:38:59;5.60;99.90
56103;DHT22;41970;48.774;9.280;2023-02-01T08:41:28;5.70;99.90
56103;DHT22;41970;48.774;9.280;2023-02-01T08:43:55;5.80;99.90
56103;DHT22;41970;48.774;9.280;2023-02-01T08:46:22;5.90;99.90
56103;DHT22;41970;48.774;9.280;2023-02-01T08:48:48;5.90;99.90
56103;DHT22;41970;48.774;9.280;2023-02-01T08:51:16;6.00;99.90
56103;DHT22;41970;48.774;9.280;2023-02-01T08:53:42;6.00;99.90
56103;DHT22;41970;48.774;9.280;2023-02-01T08:56:10;6.00;99.90
56103;DHT22;41970;48.774;9.280;2023-02-01T08:58:36;6.10;99.90
56103;DHT22;41970;48.774;9.280;2023-02-01T09:01:06;6.10;99.90
56103;DHT22;41970;48.774;9.280;2023-02-01T09:03:32;6.20;99.90
56103;DHT22;41970;48.774;9.280;2023-02-01T09:06:07;6.30;99.90
56103;DHT22;41970;48.774;9.280;2023-02-01T09:08:33;6.30;99.90
56103;DHT22;41970;48.774;9.280;2023-02-01T09:11:01;6.40;99.90
56103;DHT22;41970;48.774;9.280;2023-02-01T09:13:27;6.30;99.90
56103;DHT22;41970;48.774;9.280;2023-02-01T09:15:53;6.30;99.90
56103;DHT22;41970;48.774;9.280;2023-02-01T09:18:19;6.40;99.90
56103;DHT22;41970;48.774;9.280;2023-02-01T09:20:45;6.40;99.90
56103;DHT22;41970;48.774;9.280;2023-02-01T09:23:11;6.40;99.90
56103;DHT22;41970;48.774;9.280;2023-02-01T09:25:37;6.40;99.90
56103;DHT22;41970;48.774;9.280;2023-02-01T09:28:04;6.30;99.90
56103;DHT22;41970;48.774;9.280;2023-02-01T09:30:32;6.30;99.90
56103;DHT22;41970;48.774;9.280;2023-02-01T09:32:58;6.40;99.90
56103;DHT22;41970;48.774;9.280;2023-02-01T09:35:24;6.40;99.90
56103;DHT22;41970;48.774;9.280;2023-02-01T09:37:50;6.30;99.90
56103;DHT22;41970;48.774;9.280;2023-02-01T09:40:17;6.30;99.90
56103;DHT22;41970;48.774;9.280;2023-02-01T09:45:59;6.40;99.90
56103;DHT22;41970;48.774;9.280;2023-02-01T09:48:32;6.40;99.90
56103;DHT22;41970;48.774;9.280;2023-02-01T09:51:04;6.40;99.90
56103;DHT22;41970;48.774;9.280;2023-02-01T09:53:34;6.50;99.90
56103;DHT22;41970;48.774;9.280;2023-02-01T09:58:44;6.30;99.90
56103;DHT22;41970;48.774;9.280;2023-02-01T10:01:24;6.30;99.90
56103;DHT22;41970;48.774;9.280;2023-02-01T10:04:04;6.40;99.90
56103;DHT22;41970;48.774;9.280;2023-02-01T10:06:57;6.40;99.90
56103;DHT22;41970;48.774;9.280;2023-02-01T10:14:42;6.40;99.90
56103;DHT22;41970;48.774;9.280;2023-02-01T10:17:43;6.30;99.90
56103;DHT22;41970;48.774;9.280;2023-02-01T10:20:24;6.40;99.90
56103;DHT22;41970;48.774;9.280;2023-02-01T10:25:54;6.30;99.90
56103;DHT22;41970;48.774;9.280;2023-02-01T10:28:20;6.30;99.90
56103;DHT22;41970;48.774;9.280;2023-02-01T10:30:48;6.40;99.90
56103;DHT22;41970;48.774;9.280;2023-02-01T10:33:34;6.50;99.90
56103;DHT22;41970;48.774;9.280;2023-02-01T10:38:37;6.70;99.90
56103;DHT22;41970;48.774;9.280;2023-02-01T10:41:17;6.60;99.90
56103;DHT22;41970;48.774;9.280;2023-02-01T10:43:48;6.70;99.90
56103;DHT22;41970;48.774;9.280;2023-02-01T10:46:16;6.80;99.90
56103;DHT22;41970;48.774;9.280;2023-02-01T10:48:42;6.70;99.90
56103;DHT22;41970;48.774;9.280;2023-02-01T10:51:27;6.70;99.90
56103;DHT22;41970;48.774;9.280;2023-02-01T10:54:14;6.80;99.90
56103;DHT22;41970;48.774;9.280;2023-02-01T10:56:44;6.90;99.90
56103;DHT22;41970;48.774;9.280;2023-02-01T10:59:17;6.90;99.90
56103;DHT22;41970;48.774;9.280;2023-02-01T11:01:46;6.90;99.90
56103;DHT22;41970;48.774;9.280;2023-02-01T11:04:18;6.90;99.90
56103;DHT22;41970;48.774;9.280;2023-02-01T11:07:06;6.70;99.90
56103;DHT22;41970;48.774;9.280;2023-02-01T11:09:40;6.70;99.90
56103;DHT22;41970;48.774;9.280;2023-02-01T11:12:31;6.70;99.90
56103;DHT22;41970;48.774;9.280;2023-02-01T11:15:19;6.70;99.90
56103;DHT22;41970;48.774;9.280;2023-02-01T11:17:48;6.70;99.90
56103;DHT22;41970;48.774;9.280;2023-02-01T11:20:35;6.70;99.90
56103;DHT22;41970;48.774;9.280;2023-02-01T11:23:03;6.60;99.90
56103;DHT22;41970;48.774;9.280;2023-02-01T11:25:31;6.60;99.90
56103;DHT22;41970;48.774;9.280;2023-02-01T11:27:57;6.70;99.90
56103;DHT22;41970;48.774;9.280;2023-02-01T11:30:39;6.80;99.90
56103;DHT22;41970;48.774;9.280;2023-02-01T11:33:09;6.80;99.90
56103;DHT22;41970;48.774;9.280;2023-02-01T11:35:38;6.80;99.90
56103;DHT22;41970;48.774;9.280;2023-02-01T11:38:17;6.70;99.90
56103;DHT22;41970;48.774;9.280;2023-02-01T11:40:45;6.70;99.90
56103;DHT22;41970;48.774;9.280;2023-02-01T11:43:24;6.70;99.90
56103;DHT22;41970;48.774;9.280;2023-02-01T11:48:20;6.60;99.90
56103;DHT22;41970;48.774;9.280;2023-02-01T11:54:00;6.80;99.90
56103;DHT22;41970;48.774;9.280;2023-02-01T11:59:19;7.00;99.90
56103;DHT22;41970;48.774;9.280;2023-02-01T12:08:17;7.20;99.90
56103;DHT22;41970;48.774;9.280;2023-02-01T12:11:10;7.10;99.90
56103;DHT22;41970;48.774;9.280;2023-02-01T12:13:49;7.00;99.90
56103;DHT22;41970;48.774;9.280;2023-02-01T12:16:49;7.20;99.90
56103;DHT22;41970;48.774;9.280;2023-02-01T12:19:54;7.30;99.90
56103;DHT22;41970;48.774;9.280;2023-02-01T12:25:34;7.20;99.90
56103;DHT22;41970;48.774;9.280;2023-02-01T12:28:25;7.10;99.90
56103;DHT22;41970;48.774;9.280;2023-02-01T12:44:39;6.80;99.90
56103;DHT22;41970;48.774;9.280;2023-02-01T12:50:28;6.80;99.90
56103;DHT22;41970;48.774;9.280;2023-02-01T12:52:43;6.80;99.90
56103;DHT22;41970;48.774;9.280;2023-02-01T12:57:46;7.00;99.90
56103;DHT22;41970;48.774;9.280;2023-02-01T13:00:38;6.90;99.90
56103;DHT22;41970;48.774;9.280;2023-02-01T13:03:21;6.90;99.90
56103;DHT22;41970;48.774;9.280;2023-02-01T13:06:10;6.80;99.90
56103;DHT22;41970;48.774;9.280;2023-02-01T13:16:23;6.60;99.90
56103;DHT22;41970;48.774;9.280;2023-02-01T13:18:55;6.50;99.90
56103;DHT22;41970;48.774;9.280;2023-02-01T13:21:26;6.50;99.90
56103;DHT22;41970;48.774;9.280;2023-02-01T13:23:53;6.60;99.90
56103;DHT22;41970;48.774;9.280;2023-02-01T13:26:19;6.60;99.90
56103;DHT22;41970;48.774;9.280;2023-02-01T13:28:46;6.60;99.90
56103;DHT22;41970;48.774;9.280;2023-02-01T13:42:42;6.90;99.90
56103;DHT22;41970;48.774;9.280;2023-02-01T13:45:41;6.90;99.90
56103;DHT22;41970;48.774;9.280;2023-02-01T13:48:39;6.90;99.90
56103;DHT22;41970;48.774;9.280;2023-02-01T13:51:05;6.90;99.90
56103;DHT22;41970;48.774;9.280;2023-02-01T13:53:34;6.80;99.90
56103;DHT22;41970;48.774;9.280;2023-02-01T13:56:17;6.70;99.90
56103;DHT22;41970;48.774;9.280;2023-02-01T13:58:45;6.60;99.90
56103;DHT22;41970;48.774;9.280;2023-02-01T14:07:00;6.80;99.90
56103;DHT22;41970;48.774;9.280;2023-02-01T14:09:34;6.80;99.90
56103;DHT22;41970;48.774;9.280;2023-02-01T14:12:47;6.80;99.90
56103;DHT22;41970;48.774;9.280;2023-02-01T14:15:24;6.90;99.90
56103;DHT22;41970;48.774;9.280;2023-02-01T14:17:51;6.90;99.90
56103;DHT22;41970;48.774;9.280;2023-02-01T14:20:42;6.90;99.90
56103;DHT22;41970;48.774;9.280;2023-02-01T14:23:19;6.90;99.90
56103;DHT22;41970;48.774;9.280;2023-02-01T14:25:45;6.90;99.90
56103;DHT22;41970;48.774;9.280;2023-02-01T14:28:26;7.00;99.90
56103;DHT22;41970;48.774;9.280;2023-02-01T14:30:55;7.00;99.90
56103;DHT22;41970;48.774;9.280;2023-02-01T14:33:24;7.00;99.90
56103;DHT22;41970;48.774;9.280;2023-02-01T14:36:11;7.10;99.90
56103;DHT22;41970;48.774;9.280;2023-02-01T14:38:38;7.00;99.90
56103;DHT22;41970;48.774;9.280;2023-02-01T14:41:32;7.00;99.90
56103;DHT22;41970;48.774;9.280;2023-02-01T14:52:17;6.80;99.90
56103;DHT22;41970;48.774;9.280;2023-02-01T14:54:55;6.80;99.90
56103;DHT22;41970;48.774;9.280;2023-02-01T14:57:25;6.80;99.90
56103;DHT22;41970;48.774;9.280;2023-02-01T15:00:00;6.80;99.90
56103;DHT22;41970;48.774;9.280;2023-02-01T15:02:30;6.60;99.90
56103;DHT22;41970;48.774;9.280;2023-02-01T15:04:59;6.50;99.90
56103;DHT22;41970;48.774;9.280;2023-02-01T15:07:26;6.50;99.90
56103;DHT22;41970;48.774;9.280;2023-02-01T15:09:56;6.50;99.90
56103;DHT22;41970;48.774;9.280;2023-02-01T15:12:27;6.50;99.90
56103;DHT22;41970;48.774;9.280;2023-02-01T15:15:23;6.60;99.90
56103;DHT22;41970;48.774;9.280;2023-02-01T15:17:59;6.60;99.90
56103;DHT22;41970;48.774;9.280;2023-02-01T15:20:26;6.60;99.90
56103;DHT22;41970;48.774;9.280;2023-02-01T15:23:16;6.60;99.90
56103;DHT22;41970;48.774;9.280;2023-02-01T15:25:45;6.60;99.90
56103;DHT22;41970;48.774;9.280;2023-02-01T15:28:15;6.50;99.90
56103;DHT22;41970;48.774;9.280;2023-02-01T15:33:18;6.40;99.90
56103;DHT22;41970;48.774;9.280;2023-02-01T15:35:50;6.50;99.90
56103;DHT22;41970;48.774;9.280;2023-02-01T15:41:07;6.50;99.90
56103;DHT22;41970;48.774;9.280;2023-02-01T15:46:40;6.60;99.90
56103;DHT22;41970;48.774;9.280;2023-02-01T15:49:22;6.60;99.90
56103;DHT22;41970;48.774;9.280;2023-02-01T15:51:50;6.60;99.90
56103;DHT22;41970;48.774;9.280;2023-02-01T15:57:34;6.70;99.90
56103;DHT22;41970;48.774;9.280;2023-02-01T16:00:06;6.70;99.90
56103;DHT22;41970;48.774;9.280;2023-02-01T16:02:41;6.60;99.90
56103;DHT22;41970;48.774;9.280;2023-02-01T16:08:03;6.60;99.90
56103;DHT22;41970;48.774;9.280;2023-02-01T16:10:30;6.50;99.90
56103;DHT22;41970;48.774;9.280;2023-02-01T16:12:56;6.50;99.90
56103;DHT22;41970;48.774;9.280;2023-02-01T16:15:26;6.50;99.90
56103;DHT22;41970;48.774;9.280;2023-02-01T16:17:55;6.50;99.90
56103;DHT22;41970;48.774;9.280;2023-02-01T16:20:20;6.60;99.90
56103;DHT22;41970;48.774;9.280;2023-02-01T16:22:46;6.70;99.90
56103;DHT22;41970;48.774;9.280;2023-02-01T16:25:12;6.60;99.90
56103;DHT22;41970;48.774;9.280;2023-02-01T16:27:37;6.60;99.90
56103;DHT22;41970;48.774;9.280;2023-02-01T16:30:03;6.50;99.90
56103;DHT22;41970;48.774;9.280;2023-02-01T16:32:30;6.50;99.90
56103;DHT22;41970;48.774;9.280;2023-02-01T16:34:57;6.50;99.90
56103;DHT22;41970;48.774;9.280;2023-02-01T16:37:24;6.60;99.90
56103;DHT22;41970;48.774;9.280;2023-02-01T16:39:50;6.70;99.90
56103;DHT22;41970;48.774;9.280;2023-02-01T16:42:17;6.70;99.90
56103;DHT22;41970;48.774;9.280;2023-02-01T16:44:43;6.80;99.90
56103;DHT22;41970;48.774;9.280;2023-02-01T16:47:16;6.80;99.90
56103;DHT22;41970;48.774;9.280;2023-02-01T16:49:43;6.80;99.90
56103;DHT22;41970;48.774;9.280;2023-02-01T16:52:23;6.80;99.90
56103;DHT22;41970;48.774;9.280;2023-02-01T16:54:50;6.80;99.90
56103;DHT22;41970;48.774;9.280;2023-02-01T16:57:18;6.90;99.90
56103;DHT22;41970;48.774;9.280;2023-02-01T16:59:45;6.80;99.90
56103;DHT22;41970;48.774;9.280;2023-02-01T17:02:16;6.70;99.90
56103;DHT22;41970;48.774;9.280;2023-02-01T17:04:44;6.70;99.90
56103;DHT22;41970;48.774;9.280;2023-02-01T17:07:17;6.70;99.90
56103;DHT22;41970;48.774;9.280;2023-02-01T17:09:45;6.70;99.90
56103;DHT22;41970;48.774;9.280;2023-02-01T17:12:29;6.70;99.90
56103;DHT22;41970;48.774;9.280;2023-02-01T17:14:56;6.70;99.90
56103;DHT22;41970;48.774;9.280;2023-02-01T17:17:23;6.70;99.90
56103;DHT22;41970;48.774;9.280;2023-02-01T17:19:51;6.80;99.90
56103;DHT22;41970;48.774;9.280;2023-02-01T17:22:22;6.80;99.90
56103;DHT22;41970;48.774;9.280;2023-02-01T17:24:48;6.90;99.90
56103;DHT22;41970;48.774;9.280;2023-02-01T17:27:16;6.80;99.90
56103;DHT22;41970;48.774;9.280;2023-02-01T17:29:42;6.70;99.90
56103;DHT22;41970;48.774;9.280;2023-02-01T17:32:20;6.70;99.90
56103;DHT22;41970;48.774;9.280;2023-02-01T17:34:47;6.70;99.90
56103;DHT22;41970;48.774;9.280;2023-02-01T17:37:33;6.80;99.90
56103;DHT22;41970;48.774;9.280;2023-02-01T17:40:00;6.80;99.90
56103;DHT22;41970;48.774;9.280;2023-02-01T17:42:28;6.80;99.90
56103;DHT22;41970;48.774;9.280;2023-02-01T17:44:59;6.90;99.90
56103;DHT22;41970;48.774;9.280;2023-02-01T17:47:25;6.90;99.90
56103;DHT22;41970;48.774;9.280;2023-02-01T17:49:51;6.80;99.90
56103;DHT22;41970;48.774;9.280;2023-02-01T17:52:22;6.90;99.90
56103;DHT22;41970;48.774;9.280;2023-02-01T17:54:48;6.90;99.90
56103;DHT22;41970;48.774;9.280;2023-02-01T17:57:16;6.90;99.90
56103;DHT22;41970;48.774;9.280;2023-02-01T17:59:42;6.90;99.90
56103;DHT22;41970;48.774;9.280;2023-02-01T18:02:28;6.80;99.90
56103;DHT22;41970;48.774;9.280;2023-02-01T18:04:54;6.80;99.90
56103;DHT22;41970;48.774;9.280;2023-02-01T18:07:20;6.80;99.90
56103;DHT22;41970;48.774;9.280;2023-02-01T18:09:45;6.90;99.90
56103;DHT22;41970;48.774;9.280;2023-02-01T18:12:19;6.90;99.90
56103;DHT22;41970;48.774;9.280;2023-02-01T18:14:45;6.80;99.90
56103;DHT22;41970;48.774;9.280;2023-02-01T18:17:10;6.80;99.90
56103;DHT22;41970;48.774;9.280;2023-02-01T18:19:37;6.80;99.90
56103;DHT22;41970;48.774;9.280;2023-02-01T18:22:03;6.70;99.90
56103;DHT22;41970;48.774;9.280;2023-02-01T18:24:30;6.70;99.90
56103;DHT22;41970;48.774;9.280;2023-02-01T18:26:58;6.70;99.90
56103;DHT22;41970;48.774;9.280;2023-02-01T18:29:24;6.70;99.90
56103;DHT22;41970;48.774;9.280;2023-02-01T18:31:50;6.80;99.90